createdAt,value
2018-10-03T00:01:00.583Z,20.13
2018-10-03T00:03:29.997Z,18.90
2018-10-03T00:05:58.674Z,20.00
2018-10-03T00:08:27.331Z,20.77
2018-10-03T00:10:56.567Z,20.50
2018-10-03T00:13:25.189Z,21.27
2018-10-03T00:15:53.830Z,22.80
2018-10-03T00:18:22.514Z,21.43
2018-10-03T00:20:51.324Z,21.30
2018-10-03T00:23:19.822Z,21.10
2018-10-03T00:25:48.290Z,20.90
2018-10-03T00:28:17.070Z,22.30
2018-10-03T00:30:45.681Z,23.10
2018-10-03T00:33:14.584Z,21.50
2018-10-03T00:35:44.056Z,21.73
2018-10-03T00:38:12.699Z,23.33
2018-10-03T00:40:41.430Z,23.37
2018-10-03T00:43:09.997Z,23.23
2018-10-03T00:45:38.480Z,25.23
2018-10-03T00:48:08.078Z,22.20
2018-10-03T00:50:36.622Z,23.00
2018-10-03T00:53:05.315Z,24.27
2018-10-03T00:55:33.748Z,26.37
2018-10-03T00:58:02.497Z,25.90
2018-10-03T01:00:30.971Z,29.67
2018-10-03T01:02:59.685Z,26.40
2018-10-03T01:05:28.222Z,27.43
2018-10-03T01:07:56.677Z,28.77
2018-10-03T01:10:25.314Z,29.27
2018-10-03T01:12:53.804Z,28.90
2018-10-03T01:15:22.527Z,28.23
2018-10-03T01:17:51.196Z,29.73
2018-10-03T01:20:20.016Z,30.70
2018-10-03T01:22:48.637Z,29.50
2018-10-03T01:25:17.352Z,31.83
2018-10-03T01:27:46.123Z,31.33
2018-10-03T01:30:14.642Z,31.83
2018-10-03T01:32:43.838Z,30.60
2018-10-03T01:35:12.813Z,30.33
2018-10-03T01:37:41.277Z,31.80
2018-10-03T01:40:09.999Z,34.40
2018-10-03T01:42:39.293Z,33.23
2018-10-03T01:45:07.778Z,33.37
2018-10-03T01:47:36.362Z,33.93
2018-10-03T01:50:05.540Z,32.50
2018-10-03T01:52:34.720Z,32.57
2018-10-03T01:55:03.419Z,35.63
2018-10-03T01:57:35.145Z,31.33
2018-10-03T02:00:03.904Z,32.13
2018-10-03T02:02:32.952Z,33.03
2018-10-03T02:05:01.467Z,29.03
2018-10-03T02:07:30.000Z,30.10
2018-10-03T02:09:58.542Z,31.13
2018-10-03T02:12:27.107Z,30.30
2018-10-03T02:14:56.561Z,29.70
2018-10-03T02:17:25.528Z,30.20
2018-10-03T02:19:54.124Z,30.83
2018-10-03T02:22:22.619Z,30.80
2018-10-03T02:24:51.696Z,28.53
2018-10-03T02:27:20.300Z,28.40
2018-10-03T02:29:54.076Z,30.43
2018-10-03T02:32:22.655Z,27.13
2018-10-03T02:34:51.101Z,28.83
2018-10-03T02:37:20.428Z,26.47
2018-10-03T02:39:48.914Z,25.70
2018-10-03T02:42:17.813Z,26.37
2018-10-03T02:44:46.344Z,25.83
2018-10-03T02:47:15.593Z,24.57
2018-10-03T02:49:44.332Z,23.60
2018-10-03T02:52:12.940Z,24.63
2018-10-03T02:54:41.643Z,26.17
2018-10-03T02:57:10.146Z,23.00
2018-10-03T02:59:38.760Z,23.60
2018-10-03T03:02:07.861Z,22.43
2018-10-03T03:04:36.536Z,22.10
2018-10-03T03:07:05.436Z,22.03
2018-10-03T03:09:34.038Z,20.23
2018-10-03T03:12:02.558Z,20.57
2018-10-03T03:14:34.165Z,20.50
2018-10-03T03:17:02.817Z,20.47
2018-10-03T03:19:31.270Z,20.23
2018-10-03T03:22:00.318Z,20.53
2018-10-03T03:24:28.940Z,18.93
2018-10-03T03:26:58.357Z,19.50
2018-10-03T03:29:27.556Z,20.37
2018-10-03T03:31:56.177Z,20.27
2018-10-03T03:34:24.845Z,18.70
2018-10-03T03:36:53.317Z,19.90
2018-10-03T03:39:21.907Z,19.80
2018-10-03T03:41:50.465Z,19.23
2018-10-03T03:44:19.107Z,18.30
2018-10-03T03:46:47.644Z,18.07
2018-10-03T03:49:17.293Z,19.77
2018-10-03T03:51:45.940Z,17.43
2018-10-03T03:54:14.379Z,18.60
2018-10-03T03:56:43.718Z,17.00
2018-10-03T03:59:12.254Z,18.60
2018-10-03T04:01:41.147Z,16.50
2018-10-03T04:04:09.890Z,16.57
2018-10-03T04:06:38.459Z,17.00
2018-10-03T04:09:07.486Z,15.87
2018-10-03T04:11:36.007Z,15.87
2018-10-03T04:14:04.510Z,15.27
2018-10-03T04:16:33.189Z,13.33
2018-10-03T04:19:01.803Z,13.93
2018-10-03T04:21:34.637Z,14.10
2018-10-03T04:24:03.085Z,13.27
2018-10-03T04:26:31.908Z,12.60
2018-10-03T04:29:00.583Z,11.17
2018-10-03T04:31:29.069Z,11.67
2018-10-03T04:33:58.269Z,11.57
2018-10-03T04:36:27.112Z,11.07
2018-10-03T04:38:56.227Z,11.03
2018-10-03T04:41:27.292Z,9.50
2018-10-03T04:43:56.468Z,11.00
2018-10-03T04:46:25.173Z,9.50
2018-10-03T04:49:00.568Z,8.93
2018-10-03T04:51:29.990Z,9.27
2018-10-03T04:53:58.502Z,10.00
2018-10-03T04:56:27.155Z,9.63
2018-10-03T04:58:56.227Z,9.30
2018-10-03T05:01:24.818Z,8.97
2018-10-03T05:03:53.458Z,9.03
2018-10-03T05:06:21.967Z,9.03
2018-10-03T05:08:50.769Z,9.10
2018-10-03T05:11:19.235Z,8.53
2018-10-03T05:13:48.173Z,9.00
2018-10-03T05:16:16.773Z,7.80
2018-10-03T05:18:46.130Z,7.80
2018-10-03T05:21:14.824Z,7.80
2018-10-03T05:23:43.467Z,8.87
2018-10-03T05:26:12.192Z,8.20
2018-10-03T05:28:40.943Z,8.17
2018-10-03T05:31:10.236Z,8.73
2018-10-03T05:33:38.876Z,7.90
2018-10-03T05:36:07.846Z,8.90
2018-10-03T05:38:36.816Z,7.57
2018-10-03T05:41:05.266Z,8.20
2018-10-03T05:43:33.996Z,8.07
2018-10-03T05:46:02.502Z,6.93
2018-10-03T05:48:31.118Z,7.07
2018-10-03T05:50:59.685Z,7.07
2018-10-03T05:53:28.313Z,6.63
2018-10-03T05:55:57.250Z,7.57
2018-10-03T05:58:25.722Z,6.77
2018-10-03T06:00:55.016Z,6.80
2018-10-03T06:03:23.677Z,6.53
2018-10-03T06:05:52.120Z,6.27
2018-10-03T06:08:20.758Z,6.40
2018-10-03T06:10:52.560Z,5.20
2018-10-03T06:13:21.184Z,6.47
2018-10-03T06:15:49.800Z,6.95
2018-10-03T06:18:19.286Z,6.20
2018-10-03T06:20:47.963Z,6.13
2018-10-03T06:23:16.443Z,6.33
2018-10-03T06:25:45.385Z,5.70
2018-10-03T06:28:14.127Z,6.73
2018-10-03T06:30:42.781Z,5.93
2018-10-03T06:33:11.425Z,6.33
2018-10-03T06:35:40.088Z,6.63
2018-10-03T06:38:08.666Z,5.13
2018-10-03T06:40:37.177Z,6.27
2018-10-03T06:43:06.627Z,5.67
2018-10-03T06:45:35.309Z,6.37
2018-10-03T06:48:03.895Z,5.80
2018-10-03T06:50:32.413Z,5.73
2018-10-03T06:53:01.547Z,5.60
2018-10-03T06:55:30.206Z,6.23
2018-10-03T06:57:58.708Z,5.47
2018-10-03T07:00:27.625Z,5.93
2018-10-03T07:02:56.232Z,5.70
2018-10-03T07:05:24.899Z,5.67
2018-10-03T07:07:54.340Z,6.67
2018-10-03T07:10:23.579Z,6.65
2018-10-03T07:12:52.545Z,6.00
2018-10-03T07:15:21.593Z,7.07
2018-10-03T07:17:50.613Z,5.97
2018-10-03T07:20:19.484Z,5.63
2018-10-03T07:22:48.710Z,32.17
2018-10-03T07:25:17.419Z,8.80
2018-10-03T07:27:45.962Z,8.80
2018-10-03T07:30:14.606Z,6.10
2018-10-03T07:32:43.530Z,20.00
2018-10-03T07:35:12.141Z,5.93
2018-10-03T07:37:40.909Z,6.37
2018-10-03T07:40:09.625Z,4.23
2018-10-03T07:42:39.360Z,5.97
2018-10-03T07:45:08.011Z,5.17
2018-10-03T07:47:36.490Z,4.83
2018-10-03T07:50:05.366Z,5.00
2018-10-03T07:52:34.315Z,4.67
2018-10-03T07:55:03.023Z,4.77
2018-10-03T07:57:31.766Z,5.97
2018-10-03T08:00:00.878Z,5.13
2018-10-03T08:02:29.882Z,4.50
2018-10-03T08:04:58.693Z,4.83
2018-10-03T08:07:27.560Z,5.70
2018-10-03T08:09:56.169Z,5.47
2018-10-03T08:12:24.629Z,4.10
2018-10-03T08:14:53.211Z,7.43
2018-10-03T08:17:21.850Z,4.70
2018-10-03T08:19:50.689Z,4.20
2018-10-03T08:22:19.391Z,5.27
2018-10-03T08:24:48.240Z,4.27
2018-10-03T08:27:17.429Z,4.50
2018-10-03T08:29:46.051Z,5.63
2018-10-03T08:32:15.207Z,4.77
2018-10-03T08:34:44.359Z,4.70
2018-10-03T08:37:12.877Z,4.33
2018-10-03T08:39:41.353Z,5.27
2018-10-03T08:42:10.587Z,5.03
2018-10-03T08:44:39.417Z,4.90
2018-10-03T08:47:08.169Z,18.63
2018-10-03T08:49:36.812Z,7.53
2018-10-03T08:52:05.395Z,5.67
2018-10-03T08:54:34.116Z,4.97
2018-10-03T08:57:02.774Z,7.30
2018-10-03T08:59:31.747Z,10.17
2018-10-03T09:02:00.530Z,11.77
2018-10-03T09:04:29.288Z,23.23
2018-10-03T09:06:57.777Z,7.97
2018-10-03T09:09:26.282Z,7.30
2018-10-03T09:11:54.857Z,5.43
2018-10-03T09:14:23.497Z,5.20
2018-10-03T09:16:52.053Z,4.97
2018-10-03T09:19:20.640Z,4.73
2018-10-03T09:21:49.371Z,4.77
2018-10-03T09:24:18.548Z,4.60
2018-10-03T09:26:47.142Z,4.77
2018-10-03T09:29:16.406Z,4.40
2018-10-03T09:31:45.320Z,6.33
2018-10-03T09:34:13.989Z,4.50
2018-10-03T09:36:42.578Z,4.80
2018-10-03T09:39:12.243Z,3.83
2018-10-03T09:41:41.282Z,3.97
2018-10-03T09:44:10.670Z,4.23
2018-10-03T09:46:39.460Z,3.60
2018-10-03T09:49:08.057Z,4.00
2018-10-03T09:51:36.643Z,4.33
2018-10-03T09:54:05.431Z,3.47
2018-10-03T09:56:33.968Z,3.47
2018-10-03T09:59:02.595Z,3.67
2018-10-03T10:01:32.528Z,4.30
2018-10-03T10:04:02.456Z,4.40
2018-10-03T10:06:32.224Z,3.33
2018-10-03T10:09:01.053Z,3.87
2018-10-03T10:11:29.695Z,3.60
2018-10-03T10:13:58.391Z,5.03
2018-10-03T10:16:27.406Z,4.27
2018-10-03T10:18:55.903Z,3.83
2018-10-03T10:21:24.758Z,4.57
2018-10-03T10:23:53.725Z,4.13
2018-10-03T10:26:22.206Z,3.73
2018-10-03T10:28:50.875Z,4.00
2018-10-03T10:31:19.526Z,3.87
2018-10-03T10:33:48.327Z,3.40
2018-10-03T10:36:16.879Z,4.20
2018-10-03T10:38:46.348Z,3.60
2018-10-03T10:41:15.230Z,3.70
2018-10-03T10:43:43.786Z,3.50
2018-10-03T10:46:12.512Z,3.87
2018-10-03T10:48:47.790Z,4.03
2018-10-03T10:51:16.469Z,3.70
2018-10-03T10:53:45.452Z,3.87
2018-10-03T10:56:14.020Z,3.57
2018-10-03T10:58:42.733Z,3.80
2018-10-03T11:01:11.445Z,3.87
2018-10-03T11:03:40.159Z,3.60
2018-10-03T11:06:09.501Z,4.20
2018-10-03T11:08:40.065Z,2.93
2018-10-03T11:11:15.664Z,3.27
2018-10-03T11:13:44.290Z,3.93
2018-10-03T11:16:12.755Z,3.90
2018-10-03T11:18:41.389Z,3.90
2018-10-03T11:21:10.011Z,4.70
2018-10-03T11:23:38.871Z,3.97
2018-10-03T11:26:07.802Z,4.30
2018-10-03T11:28:36.437Z,4.33
2018-10-03T11:31:05.009Z,3.43
2018-10-03T11:33:33.617Z,3.90
2018-10-03T11:36:03.657Z,3.83
2018-10-03T11:38:32.226Z,3.77
2018-10-03T11:41:00.864Z,3.80
2018-10-03T11:43:29.690Z,4.00
2018-10-03T11:45:58.542Z,4.07
2018-10-03T11:48:27.222Z,3.83
2018-10-03T11:50:56.618Z,3.30
2018-10-03T11:53:25.589Z,3.62
2018-10-03T11:55:54.352Z,5.00
2018-10-03T11:58:23.133Z,3.35
2018-10-03T12:00:51.805Z,4.00
2018-10-03T12:03:20.368Z,3.37
2018-10-03T12:05:49.715Z,3.42
2018-10-03T12:08:18.220Z,3.83
2018-10-03T12:10:46.763Z,3.30
2018-10-03T12:13:15.550Z,2.90
2018-10-03T12:15:44.169Z,3.22
2018-10-03T12:18:13.389Z,3.45
2018-10-03T12:20:42.065Z,3.60
2018-10-03T12:23:10.931Z,3.72
2018-10-03T12:25:40.272Z,3.98
2018-10-03T12:28:09.109Z,4.03
2018-10-03T12:30:37.611Z,3.85
2018-10-03T12:33:06.213Z,3.25
2018-10-03T12:35:35.668Z,3.83
2018-10-03T12:38:04.479Z,3.23
2018-10-03T12:40:33.650Z,3.67
2018-10-03T12:43:02.405Z,3.60
2018-10-03T12:45:31.141Z,3.87
2018-10-03T12:48:00.496Z,3.20
2018-10-03T12:50:29.115Z,3.60
2018-10-03T12:52:57.654Z,3.17
2018-10-03T12:55:26.252Z,3.83
2018-10-03T12:57:54.890Z,3.50
2018-10-03T13:00:27.844Z,3.37
2018-10-03T13:02:56.650Z,3.95
2018-10-03T13:05:25.180Z,3.30
2018-10-03T13:07:54.042Z,3.75
2018-10-03T13:10:22.679Z,2.83
2018-10-03T13:12:51.209Z,3.17
2018-10-03T13:15:19.813Z,3.60
2018-10-03T13:17:49.502Z,3.35
2018-10-03T13:20:18.021Z,3.00
2018-10-03T13:22:46.623Z,3.47
2018-10-03T13:25:15.907Z,3.40
2018-10-03T13:27:44.408Z,4.17
2018-10-03T13:30:13.590Z,3.07
2018-10-03T13:32:42.393Z,4.00
2018-10-03T13:35:11.384Z,3.60
2018-10-03T13:37:40.277Z,3.80
2018-10-03T13:40:08.984Z,4.75
2018-10-03T13:42:37.595Z,4.97
2018-10-03T13:45:06.962Z,5.05
2018-10-03T13:47:35.586Z,5.07
2018-10-03T13:50:04.550Z,4.20
2018-10-03T13:52:33.205Z,3.50
2018-10-03T13:55:01.835Z,3.83
2018-10-03T13:57:30.260Z,4.10
2018-10-03T13:59:59.258Z,4.07
2018-10-03T14:02:28.577Z,3.33
2018-10-03T14:04:57.874Z,4.77
2018-10-03T14:07:27.312Z,5.50
2018-10-03T14:09:55.917Z,3.77
2018-10-03T14:12:24.809Z,4.03
2018-10-03T14:14:53.508Z,3.58
2018-10-03T14:17:22.284Z,3.63
2018-10-03T14:19:50.847Z,3.00
2018-10-03T14:22:19.521Z,2.93
2018-10-03T14:24:48.376Z,3.07
2018-10-03T14:27:23.398Z,3.30
2018-10-03T14:29:52.189Z,2.70
2018-10-03T14:32:20.996Z,3.90
2018-10-03T14:34:49.721Z,3.65
2018-10-03T14:37:18.529Z,3.33
2018-10-03T14:39:47.701Z,8.53
2018-10-03T14:42:17.533Z,3.55
2018-10-03T14:44:46.479Z,7.47
2018-10-03T14:47:15.274Z,5.12
2018-10-03T14:49:45.047Z,5.00
2018-10-03T14:52:13.781Z,4.03
2018-10-03T14:54:42.349Z,3.62
2018-10-03T14:57:11.192Z,4.35
2018-10-03T14:59:39.932Z,3.27
2018-10-03T15:02:08.770Z,3.42
2018-10-03T15:04:37.477Z,3.65
2018-10-03T15:07:07.102Z,3.58
2018-10-03T15:09:36.174Z,3.40
2018-10-03T15:12:04.946Z,3.50
2018-10-03T15:14:33.544Z,4.47
2018-10-03T15:17:02.056Z,3.40
2018-10-03T15:19:30.582Z,3.60
2018-10-03T15:21:59.975Z,3.67
2018-10-03T15:24:28.679Z,3.52
2018-10-03T15:26:57.434Z,3.70
2018-10-03T15:29:26.077Z,3.42
2018-10-03T15:31:55.257Z,3.63
2018-10-03T15:34:24.269Z,3.03
2018-10-03T15:36:52.992Z,3.67
2018-10-03T15:39:21.838Z,3.43
2018-10-03T15:41:50.509Z,2.93
2018-10-03T15:44:19.191Z,3.73
2018-10-03T15:46:47.934Z,4.47
2018-10-03T15:49:16.437Z,3.40
2018-10-03T15:51:44.952Z,5.73
2018-10-03T15:54:13.642Z,4.07
2018-10-03T15:56:42.498Z,4.27
2018-10-03T15:59:11.606Z,4.17
2018-10-03T16:01:40.580Z,4.17
2018-10-03T16:04:09.866Z,4.03
2018-10-03T16:06:38.395Z,3.30
2018-10-03T16:09:08.202Z,3.27
2018-10-03T16:11:37.189Z,3.43
2018-10-03T16:14:05.764Z,3.43
2018-10-03T16:16:34.584Z,3.67
2018-10-03T16:19:03.988Z,3.60
2018-10-03T16:21:35.422Z,4.07
2018-10-03T16:24:04.308Z,3.70
2018-10-03T16:26:32.979Z,3.63
2018-10-03T16:29:01.805Z,3.73
2018-10-03T16:31:30.929Z,3.47
2018-10-03T16:34:00.477Z,4.10
2018-10-03T16:36:29.283Z,3.53
2018-10-03T16:38:58.014Z,2.73
2018-10-03T16:41:26.634Z,3.83
2018-10-03T16:43:55.262Z,3.53
2018-10-03T16:46:23.940Z,3.60
2018-10-03T16:48:52.815Z,3.63
2018-10-03T16:51:21.506Z,4.10
2018-10-03T16:53:50.749Z,3.70
2018-10-03T16:56:19.665Z,3.37
2018-10-03T16:58:48.388Z,3.77
2018-10-03T17:01:17.020Z,3.37
2018-10-03T17:03:45.532Z,3.30
2018-10-03T17:06:14.314Z,3.87
2018-10-03T17:08:46.017Z,4.20
2018-10-03T17:11:14.895Z,3.17
2018-10-03T17:13:54.528Z,3.50
2018-10-03T17:16:23.492Z,4.43
2018-10-03T17:18:52.270Z,4.47
2018-10-03T17:21:21.186Z,3.93
2018-10-03T17:23:50.124Z,3.80
2018-10-03T17:26:18.858Z,4.33
2018-10-03T17:28:48.248Z,3.80
2018-10-03T17:31:16.774Z,4.07
2018-10-03T17:33:45.781Z,3.77
2018-10-03T17:36:14.418Z,4.40
2018-10-03T17:38:43.611Z,4.23
2018-10-03T17:41:12.536Z,7.80
2018-10-03T17:43:41.214Z,4.90
2018-10-03T17:46:09.925Z,4.87
2018-10-03T17:48:38.846Z,4.63
2018-10-03T17:51:07.789Z,5.20
2018-10-03T17:53:37.014Z,6.63
2018-10-03T17:56:05.613Z,5.30
2018-10-03T17:58:34.223Z,5.77
2018-10-03T18:01:02.716Z,5.70
2018-10-03T18:03:31.765Z,5.63
2018-10-03T18:06:03.402Z,7.10
2018-10-03T18:08:32.069Z,6.37
2018-10-03T18:11:00.971Z,7.00
2018-10-03T18:13:29.969Z,6.37
2018-10-03T18:15:58.636Z,7.37
2018-10-03T18:18:27.662Z,5.93
2018-10-03T18:20:56.253Z,9.47
2018-10-03T18:23:25.165Z,6.30
2018-10-03T18:25:53.990Z,5.80
2018-10-03T18:28:22.735Z,6.03
2018-10-03T18:30:51.963Z,5.70
2018-10-03T18:33:20.842Z,6.00
2018-10-03T18:35:49.837Z,5.50
2018-10-03T18:38:18.986Z,5.87
2018-10-03T18:40:48.259Z,5.97
2018-10-03T18:43:17.711Z,5.70
2018-10-03T18:45:47.596Z,6.30
2018-10-03T18:48:17.439Z,4.97
2018-10-03T18:50:46.958Z,5.70
2018-10-03T18:53:16.455Z,5.00
2018-10-03T18:55:45.760Z,5.63
2018-10-03T18:58:15.123Z,6.47
2018-10-03T19:00:45.064Z,6.13
2018-10-03T19:03:14.687Z,6.20
2018-10-03T19:05:44.031Z,7.00
2018-10-03T19:08:14.867Z,6.67
2018-10-03T19:10:44.202Z,6.97
2018-10-03T19:13:13.868Z,6.27
2018-10-03T19:15:43.222Z,6.33
2018-10-03T19:18:13.113Z,7.83
2018-10-03T19:20:42.455Z,7.77
2018-10-03T19:23:11.463Z,7.83
2018-10-03T19:25:40.912Z,7.87
2018-10-03T19:28:12.013Z,7.97
2018-10-03T19:30:41.692Z,7.57
2018-10-03T19:33:11.786Z,7.17
2018-10-03T19:35:42.045Z,6.57
2018-10-03T19:38:11.238Z,7.77
2018-10-03T19:40:41.119Z,7.00
2018-10-03T19:43:10.221Z,6.43
2018-10-03T19:45:39.342Z,5.87
2018-10-03T19:48:08.591Z,5.07
2018-10-03T19:50:37.152Z,5.50
2018-10-03T19:53:05.778Z,5.47
2018-10-03T19:55:34.921Z,5.30
2018-10-03T19:58:03.935Z,4.83
2018-10-03T20:00:32.782Z,5.13
2018-10-03T20:03:07.290Z,4.67
2018-10-03T20:05:35.887Z,5.10
2018-10-03T20:08:04.542Z,4.60
2018-10-03T20:10:33.503Z,4.57
2018-10-03T20:13:02.511Z,4.27
2018-10-03T20:15:31.146Z,5.23
2018-10-03T20:18:01.385Z,4.23
2018-10-03T20:20:30.047Z,6.07
2018-10-03T20:22:58.895Z,5.30
2018-10-03T20:25:27.650Z,4.80
2018-10-03T20:27:56.234Z,5.47
2018-10-03T20:30:24.852Z,5.10
2018-10-03T20:32:54.037Z,5.27
2018-10-03T20:35:23.439Z,4.80
2018-10-03T20:37:52.468Z,4.93
2018-10-03T20:40:21.174Z,4.97
2018-10-03T20:42:49.909Z,4.60
2018-10-03T20:45:18.598Z,5.07
2018-10-03T20:47:47.321Z,5.00
2018-10-03T20:50:17.721Z,5.28
2018-10-03T20:52:46.449Z,4.73
2018-10-03T20:55:14.978Z,5.20
2018-10-03T20:57:43.840Z,4.40
2018-10-03T21:00:12.383Z,4.53
2018-10-03T21:02:41.609Z,4.70
2018-10-03T21:05:10.127Z,4.07
2018-10-03T21:07:39.058Z,4.00
2018-10-03T21:10:08.266Z,4.60
2018-10-03T21:12:37.329Z,4.97
2018-10-03T21:15:07.345Z,4.28
2018-10-03T21:17:36.029Z,4.77
2018-10-03T21:20:05.647Z,4.43
2018-10-03T21:22:34.281Z,4.37
2018-10-03T21:25:02.997Z,5.30
2018-10-03T21:27:31.526Z,4.63
2018-10-03T21:30:00.137Z,4.57
2018-10-03T21:32:28.976Z,4.20
2018-10-03T21:34:57.410Z,4.70
2018-10-03T21:37:26.115Z,3.50
2018-10-03T21:39:54.688Z,4.73
2018-10-03T21:42:23.348Z,4.10
2018-10-03T21:44:51.893Z,5.00
2018-10-03T21:47:20.784Z,4.43
2018-10-03T21:49:49.473Z,4.17
2018-10-03T21:52:18.247Z,4.00
2018-10-03T21:54:46.835Z,4.87
2018-10-03T21:57:15.454Z,5.07
2018-10-03T21:59:44.273Z,5.07
2018-10-03T22:02:13.392Z,4.47
2018-10-03T22:04:41.863Z,5.20
2018-10-03T22:07:10.313Z,4.87
2018-10-03T22:09:38.954Z,4.43
2018-10-03T22:12:07.616Z,4.83
2018-10-03T22:14:37.085Z,5.27
2018-10-03T22:17:09.738Z,4.60
2018-10-03T22:19:38.651Z,4.70
2018-10-03T22:22:07.222Z,4.73
2018-10-03T22:24:35.821Z,4.43
2018-10-03T22:27:04.377Z,5.13
2018-10-03T22:29:33.310Z,4.37
2018-10-03T22:32:01.886Z,4.80
2018-10-03T22:34:31.299Z,4.67
2018-10-03T22:36:59.972Z,5.23
2018-10-03T22:39:28.562Z,4.47
2018-10-03T22:41:57.071Z,4.60
2018-10-03T22:44:25.945Z,4.47
2018-10-03T22:46:54.958Z,4.23
2018-10-03T22:49:23.523Z,4.07
2018-10-03T22:51:52.392Z,4.73
2018-10-03T22:54:21.529Z,4.37
2018-10-03T22:56:50.738Z,5.07
2018-10-03T22:59:19.293Z,5.87
2018-10-03T23:01:47.792Z,4.97
2018-10-03T23:04:16.233Z,5.03
2018-10-03T23:06:45.950Z,5.17
2018-10-03T23:09:14.452Z,4.60
2018-10-03T23:11:43.121Z,5.33
2018-10-03T23:14:11.559Z,5.83
2018-10-03T23:16:40.172Z,5.37
2018-10-03T23:19:08.732Z,5.30
2018-10-03T23:21:37.556Z,4.90
2018-10-03T23:24:06.104Z,4.93
2018-10-03T23:26:34.620Z,4.73
2018-10-03T23:29:03.475Z,6.03
2018-10-03T23:31:32.199Z,4.97
2018-10-03T23:34:01.037Z,6.07
2018-10-03T23:36:29.817Z,5.50
2018-10-03T23:38:58.460Z,5.50
2018-10-03T23:41:28.442Z,5.30
2018-10-03T23:43:57.092Z,5.00
2018-10-03T23:46:25.950Z,5.90
2018-10-03T23:48:54.458Z,5.27
2018-10-03T23:51:23.113Z,5.70
2018-10-03T23:53:51.659Z,6.27
2018-10-03T23:56:20.401Z,6.30
2018-10-03T23:58:48.925Z,6.20
